Waterloo, Alabama
Current Conditions -  °F | °C
As of 11:15 AM on Friday 28 Nov 2014 (Local Time) from KSNH Reporting Station
Clear Clear  
Wind Chill: 40°   Ceiling: Unl
Heat Index: 43°   Visibility: 10mi
Dew Point: 25°   Wind: 5mph
Humidity: 49%   Direction: NA
Pressure: 30.37"   Gusts: NA
Location:  34.92°N, 88.06°W
Report Text: KSNH 281715Z AUTO VRB04KT 10SM CLR 06/M04 A3037 RMK
Loading
Personal Weather Stations






























Interactive Weather Map New forecast layout! Learn more

10-Day Weather Forecast

Advertisements
Track Severe Weather on mobile